Slingerlands, NY (12159)

8:08 PM EDT on July 23, 2016 (GMT -0400)
Slingerlands - Delmar | | Change Station

Elev 256 ft 42.62 °N, 73.86 °W | Updated 9 seconds ago

Mostly Cloudy
Mostly Cloudy
67.8 °F
Feels Like 67.8 °F
N
0.0
Wind Variable Wind from NW
Gusts 0.0 mph

Today
High -- | Low -- °F
--% Chance of Precip.
Yesterday
High -- | Low -- °F
Precip. -- in
Pressure 29.91 in
Visibility 10.0 miles
Clouds Few 4500 ft
Few 6000 ft
Scattered Clouds 11000 ft
Scattered Clouds 14000 ft
Mostly Cloudy 21000 ft
Dew Point 66 °F
Humidity 93%
Rainfall 0.11 in
Snow Depth Not available.
5:38 AM 8:24 PM
Waning Gibbous, 81% visible
METAR KALB 232351Z COR 02004KT 10SM FEW045 FEW060 SCT110 SCT140 BKN210 21/18 A2991 RMK AO2 RAE21 TSE24 SLP126 P0003 60003 T02110178 10328 20211 51033
Pressure 29.91 in
Visibility 10.0 miles
Clouds Few 4500 ft
Few 6000 ft
Scattered Clouds 11000 ft
Scattered Clouds 14000 ft
Mostly Cloudy 21000 ft
Dew Point 66 °F
Humidity 93%
Rainfall 0.11 in
Snow Depth Not available.
5:38 AM 8:24 PM
Waning Gibbous, 81% visible
METAR KALB 232351Z COR 02004KT 10SM FEW045 FEW060 SCT110 SCT140 BKN210 21/18 A2991 RMK AO2 RAE21 TSE24 SLP126 P0003 60003 T02110178 10328 20211 51033

10-Day Weather Forecast

Almanac

Astronomy

Jul. 23, 2016 Rise Set
Actual Time
Civil Twilight
Nautical Twilight
Astronomical Twilight
Moon
Length of Visible Light
Length of Day
Tomorrow will be .
, % of the Moon is Illuminated

Today's Extremes

State Highs State Lows

Community

WunderPhotos

Upload Photos

1,926,979 photos uploaded!

WunderBlog® & News

Nearby

Air Quality

  Air Quality AQ Index Pollutant
Not available.

Snow Depth

Station Depth Elevation

Earthquake Activity

City Distance Mag. Time & Date
Minimum magnitude displayed is 2.5.

Coastal Water Temperatures

Place Temperature

Stations

Nearby Weather Stations

Station Location Temp. Windchill Dew Point Humidity Wind Precip. Elev Updated Type
                   

Watches & Warnings

There are currently no watches in effect.